sensor_id;sensor_type;location;lat;lon;timestamp;P1;durP1;ratioP1;P2;durP2;ratioP2
4634;SDS011;2330;48.158;11.816;2023-09-12T00:00:46;12.47;;;9.90;;
4634;SDS011;2330;48.158;11.816;2023-09-12T00:03:13;11.30;;;10.30;;
4634;SDS011;2330;48.158;11.816;2023-09-12T00:05:40;11.73;;;9.47;;
4634;SDS011;2330;48.158;11.816;2023-09-12T00:08:08;10.57;;;9.43;;
4634;SDS011;2330;48.158;11.816;2023-09-12T00:10:34;10.73;;;9.60;;
4634;SDS011;2330;48.158;11.816;2023-09-12T00:13:01;10.97;;;9.43;;
4634;SDS011;2330;48.158;11.816;2023-09-12T00:15:28;10.40;;;9.50;;
4634;SDS011;2330;48.158;11.816;2023-09-12T00:17:55;12.00;;;10.90;;
4634;SDS011;2330;48.158;11.816;2023-09-12T00:20:23;10.10;;;9.30;;
4634;SDS011;2330;48.158;11.816;2023-09-12T00:22:50;11.70;;;10.67;;
4634;SDS011;2330;48.158;11.816;2023-09-12T00:25:16;10.93;;;9.90;;
4634;SDS011;2330;48.158;11.816;2023-09-12T00:27:43;11.83;;;10.40;;
4634;SDS011;2330;48.158;11.816;2023-09-12T00:30:10;10.70;;;9.70;;
4634;SDS011;2330;48.158;11.816;2023-09-12T00:32:37;11.20;;;10.30;;
4634;SDS011;2330;48.158;11.816;2023-09-12T00:35:04;11.80;;;10.70;;
4634;SDS011;2330;48.158;11.816;2023-09-12T00:37:31;11.23;;;10.07;;
4634;SDS011;2330;48.158;11.816;2023-09-12T00:39:58;11.13;;;10.00;;
4634;SDS011;2330;48.158;11.816;2023-09-12T00:42:25;11.10;;;10.00;;
4634;SDS011;2330;48.158;11.816;2023-09-12T00:44:53;10.07;;;9.17;;
4634;SDS011;2330;48.158;11.816;2023-09-12T00:47:20;11.70;;;9.07;;
4634;SDS011;2330;48.158;11.816;2023-09-12T00:49:48;9.87;;;8.70;;
4634;SDS011;2330;48.158;11.816;2023-09-12T00:52:22;10.23;;;9.33;;
4634;SDS011;2330;48.158;11.816;2023-09-12T00:54:51;9.23;;;8.50;;
4634;SDS011;2330;48.158;11.816;2023-09-12T00:57:19;11.60;;;10.50;;
4634;SDS011;2330;48.158;11.816;2023-09-12T00:59:48;9.73;;;9.00;;
4634;SDS011;2330;48.158;11.816;2023-09-12T01:02:15;10.70;;;9.80;;
4634;SDS011;2330;48.158;11.816;2023-09-12T01:04:43;9.87;;;8.97;;
4634;SDS011;2330;48.158;11.816;2023-09-12T01:07:10;11.80;;;9.70;;
4634;SDS011;2330;48.158;11.816;2023-09-12T01:09:37;10.13;;;9.33;;
4634;SDS011;2330;48.158;11.816;2023-09-12T01:12:04;10.70;;;9.50;;
4634;SDS011;2330;48.158;11.816;2023-09-12T01:14:31;10.70;;;9.43;;
4634;SDS011;2330;48.158;11.816;2023-09-12T01:16:58;13.33;;;9.40;;
4634;SDS011;2330;48.158;11.816;2023-09-12T01:19:27;11.03;;;10.03;;
4634;SDS011;2330;48.158;11.816;2023-09-12T01:22:10;9.37;;;8.57;;
4634;SDS011;2330;48.158;11.816;2023-09-12T01:25:29;10.70;;;9.50;;
4634;SDS011;2330;48.158;11.816;2023-09-12T01:27:34;10.60;;;9.60;;
4634;SDS011;2330;48.158;11.816;2023-09-12T01:30:11;18.00;;;10.07;;
4634;SDS011;2330;48.158;11.816;2023-09-12T01:32:42;10.43;;;9.53;;
4634;SDS011;2330;48.158;11.816;2023-09-12T01:35:10;10.63;;;9.57;;
4634;SDS011;2330;48.158;11.816;2023-09-12T01:37:36;10.23;;;9.20;;
4634;SDS011;2330;48.158;11.816;2023-09-12T01:40:03;10.70;;;9.70;;
4634;SDS011;2330;48.158;11.816;2023-09-12T01:42:34;10.30;;;9.43;;
4634;SDS011;2330;48.158;11.816;2023-09-12T01:45:04;11.00;;;9.93;;
4634;SDS011;2330;48.158;11.816;2023-09-12T01:47:32;11.90;;;9.27;;
4634;SDS011;2330;48.158;11.816;2023-09-12T01:50:02;10.23;;;8.43;;
4634;SDS011;2330;48.158;11.816;2023-09-12T01:52:31;10.77;;;9.87;;
4634;SDS011;2330;48.158;11.816;2023-09-12T01:54:58;10.27;;;9.37;;
4634;SDS011;2330;48.158;11.816;2023-09-12T01:57:26;10.47;;;9.43;;
4634;SDS011;2330;48.158;11.816;2023-09-12T01:59:53;11.57;;;9.87;;
4634;SDS011;2330;48.158;11.816;2023-09-12T02:02:19;10.40;;;9.40;;
4634;SDS011;2330;48.158;11.816;2023-09-12T02:04:50;10.53;;;9.27;;
4634;SDS011;2330;48.158;11.816;2023-09-12T02:07:27;10.10;;;8.80;;
4634;SDS011;2330;48.158;11.816;2023-09-12T02:09:57;12.83;;;10.30;;
4634;SDS011;2330;48.158;11.816;2023-09-12T02:12:24;15.30;;;10.20;;
4634;SDS011;2330;48.158;11.816;2023-09-12T02:14:51;11.60;;;10.40;;
4634;SDS011;2330;48.158;11.816;2023-09-12T02:17:17;11.33;;;10.20;;
4634;SDS011;2330;48.158;11.816;2023-09-12T02:19:46;11.00;;;9.77;;
4634;SDS011;2330;48.158;11.816;2023-09-12T02:22:14;14.30;;;9.40;;
4634;SDS011;2330;48.158;11.816;2023-09-12T02:24:40;12.83;;;9.63;;
4634;SDS011;2330;48.158;11.816;2023-09-12T02:27:07;11.77;;;9.83;;
4634;SDS011;2330;48.158;11.816;2023-09-12T02:29:34;11.50;;;8.77;;
4634;SDS011;2330;48.158;11.816;2023-09-12T02:32:01;13.67;;;9.33;;
4634;SDS011;2330;48.158;11.816;2023-09-12T02:34:28;11.50;;;9.40;;
4634;SDS011;2330;48.158;11.816;2023-09-12T02:36:55;9.70;;;8.80;;
4634;SDS011;2330;48.158;11.816;2023-09-12T02:39:22;10.00;;;9.10;;
4634;SDS011;2330;48.158;11.816;2023-09-12T02:41:49;15.63;;;10.10;;
4634;SDS011;2330;48.158;11.816;2023-09-12T02:44:16;18.27;;;10.50;;
4634;SDS011;2330;48.158;11.816;2023-09-12T02:46:43;10.00;;;9.10;;
4634;SDS011;2330;48.158;11.816;2023-09-12T02:49:10;13.23;;;9.47;;
4634;SDS011;2330;48.158;11.816;2023-09-12T02:51:38;9.63;;;8.83;;
4634;SDS011;2330;48.158;11.816;2023-09-12T02:54:05;9.87;;;8.97;;
4634;SDS011;2330;48.158;11.816;2023-09-12T02:56:32;9.60;;;8.80;;
4634;SDS011;2330;48.158;11.816;2023-09-12T02:58:59;10.87;;;9.93;;
4634;SDS011;2330;48.158;11.816;2023-09-12T03:01:26;12.63;;;10.50;;
4634;SDS011;2330;48.158;11.816;2023-09-12T03:03:54;11.27;;;9.93;;
4634;SDS011;2330;48.158;11.816;2023-09-12T03:06:21;13.57;;;10.00;;
4634;SDS011;2330;48.158;11.816;2023-09-12T03:08:48;10.97;;;9.40;;
4634;SDS011;2330;48.158;11.816;2023-09-12T03:11:16;11.03;;;10.00;;
4634;SDS011;2330;48.158;11.816;2023-09-12T03:13:42;11.83;;;9.17;;
4634;SDS011;2330;48.158;11.816;2023-09-12T03:16:10;9.97;;;9.10;;
4634;SDS011;2330;48.158;11.816;2023-09-12T03:18:37;11.37;;;10.27;;
4634;SDS011;2330;48.158;11.816;2023-09-12T03:21:04;10.30;;;9.30;;
4634;SDS011;2330;48.158;11.816;2023-09-12T03:23:31;9.87;;;8.97;;
4634;SDS011;2330;48.158;11.816;2023-09-12T03:26:04;9.60;;;8.80;;
4634;SDS011;2330;48.158;11.816;2023-09-12T03:28:32;9.47;;;8.67;;
4634;SDS011;2330;48.158;11.816;2023-09-12T03:31:08;9.70;;;8.90;;
4634;SDS011;2330;48.158;11.816;2023-09-12T03:33:41;12.00;;;9.70;;
4634;SDS011;2330;48.158;11.816;2023-09-12T03:36:09;11.93;;;8.13;;
4634;SDS011;2330;48.158;11.816;2023-09-12T03:38:36;9.30;;;8.50;;
4634;SDS011;2330;48.158;11.816;2023-09-12T03:41:02;10.87;;;10.07;;
4634;SDS011;2330;48.158;11.816;2023-09-12T03:43:29;9.53;;;8.60;;
4634;SDS011;2330;48.158;11.816;2023-09-12T03:45:56;9.90;;;9.00;;
4634;SDS011;2330;48.158;11.816;2023-09-12T03:48:23;10.87;;;9.23;;
4634;SDS011;2330;48.158;11.816;2023-09-12T03:50:50;9.90;;;9.10;;
4634;SDS011;2330;48.158;11.816;2023-09-12T03:53:17;10.30;;;9.27;;
4634;SDS011;2330;48.158;11.816;2023-09-12T03:55:44;11.20;;;10.20;;
4634;SDS011;2330;48.158;11.816;2023-09-12T03:58:11;11.37;;;10.17;;
4634;SDS011;2330;48.158;11.816;2023-09-12T04:00:38;15.60;;;10.60;;
4634;SDS011;2330;48.158;11.816;2023-09-12T04:03:05;20.67;;;10.37;;
4634;SDS011;2330;48.158;11.816;2023-09-12T04:05:32;9.90;;;8.47;;
4634;SDS011;2330;48.158;11.816;2023-09-12T04:07:58;9.60;;;8.80;;
4634;SDS011;2330;48.158;11.816;2023-09-12T04:10:25;12.40;;;8.80;;
4634;SDS011;2330;48.158;11.816;2023-09-12T04:12:52;14.80;;;8.93;;
4634;SDS011;2330;48.158;11.816;2023-09-12T04:15:19;11.70;;;9.40;;
4634;SDS011;2330;48.158;11.816;2023-09-12T04:17:46;9.70;;;8.70;;
4634;SDS011;2330;48.158;11.816;2023-09-12T04:20:12;8.67;;;7.90;;
4634;SDS011;2330;48.158;11.816;2023-09-12T04:22:43;9.50;;;8.50;;
4634;SDS011;2330;48.158;11.816;2023-09-12T04:25:10;10.03;;;9.03;;
4634;SDS011;2330;48.158;11.816;2023-09-12T04:27:37;9.97;;;8.97;;
4634;SDS011;2330;48.158;11.816;2023-09-12T04:30:04;10.10;;;9.10;;
4634;SDS011;2330;48.158;11.816;2023-09-12T04:32:31;9.83;;;8.90;;
4634;SDS011;2330;48.158;11.816;2023-09-12T04:34:59;9.50;;;8.57;;
4634;SDS011;2330;48.158;11.816;2023-09-12T04:37:26;12.00;;;8.50;;
4634;SDS011;2330;48.158;11.816;2023-09-12T04:39:53;9.63;;;8.73;;
4634;SDS011;2330;48.158;11.816;2023-09-12T04:42:19;9.60;;;8.70;;
4634;SDS011;2330;48.158;11.816;2023-09-12T04:44:47;9.27;;;8.47;;
4634;SDS011;2330;48.158;11.816;2023-09-12T04:47:14;9.90;;;9.00;;
4634;SDS011;2330;48.158;11.816;2023-09-12T04:49:41;13.63;;;8.97;;
4634;SDS011;2330;48.158;11.816;2023-09-12T04:52:09;10.20;;;9.20;;
4634;SDS011;2330;48.158;11.816;2023-09-12T04:54:36;18.60;;;9.63;;
4634;SDS011;2330;48.158;11.816;2023-09-12T04:57:03;13.37;;;9.53;;
4634;SDS011;2330;48.158;11.816;2023-09-12T04:59:30;14.10;;;10.10;;
4634;SDS011;2330;48.158;11.816;2023-09-12T05:01:57;11.83;;;10.67;;
4634;SDS011;2330;48.158;11.816;2023-09-12T05:04:24;12.53;;;8.87;;
4634;SDS011;2330;48.158;11.816;2023-09-12T05:06:50;14.33;;;9.27;;
4634;SDS011;2330;48.158;11.816;2023-09-12T05:09:17;10.40;;;8.70;;
4634;SDS011;2330;48.158;11.816;2023-09-12T05:11:44;13.00;;;9.40;;
4634;SDS011;2330;48.158;11.816;2023-09-12T05:14:11;10.20;;;9.03;;
4634;SDS011;2330;48.158;11.816;2023-09-12T05:16:38;10.87;;;9.87;;
4634;SDS011;2330;48.158;11.816;2023-09-12T05:19:05;10.50;;;9.40;;
4634;SDS011;2330;48.158;11.816;2023-09-12T05:21:32;11.00;;;10.00;;
4634;SDS011;2330;48.158;11.816;2023-09-12T05:23:59;9.17;;;8.27;;
4634;SDS011;2330;48.158;11.816;2023-09-12T05:26:25;10.83;;;9.67;;
4634;SDS011;2330;48.158;11.816;2023-09-12T05:28:52;11.67;;;10.53;;
4634;SDS011;2330;48.158;11.816;2023-09-12T05:31:19;11.30;;;10.10;;
4634;SDS011;2330;48.158;11.816;2023-09-12T05:33:46;18.20;;;9.60;;
4634;SDS011;2330;48.158;11.816;2023-09-12T05:36:13;10.83;;;9.73;;
4634;SDS011;2330;48.158;11.816;2023-09-12T05:38:40;13.13;;;9.17;;
4634;SDS011;2330;48.158;11.816;2023-09-12T05:41:07;17.67;;;8.97;;
4634;SDS011;2330;48.158;11.816;2023-09-12T05:43:34;12.23;;;9.20;;
4634;SDS011;2330;48.158;11.816;2023-09-12T05:46:00;10.20;;;9.30;;
4634;SDS011;2330;48.158;11.816;2023-09-12T05:48:28;17.30;;;9.10;;
4634;SDS011;2330;48.158;11.816;2023-09-12T05:50:55;9.70;;;8.90;;
4634;SDS011;2330;48.158;11.816;2023-09-12T05:53:22;11.33;;;9.37;;
4634;SDS011;2330;48.158;11.816;2023-09-12T05:55:48;9.87;;;8.97;;
4634;SDS011;2330;48.158;11.816;2023-09-12T05:58:15;11.50;;;9.77;;
4634;SDS011;2330;48.158;11.816;2023-09-12T06:00:42;9.20;;;8.30;;
4634;SDS011;2330;48.158;11.816;2023-09-12T06:03:09;11.83;;;9.40;;
4634;SDS011;2330;48.158;11.816;2023-09-12T06:05:36;11.70;;;8.50;;
4634;SDS011;2330;48.158;11.816;2023-09-12T06:08:03;11.23;;;8.90;;
4634;SDS011;2330;48.158;11.816;2023-09-12T06:10:31;9.83;;;8.83;;
4634;SDS011;2330;48.158;11.816;2023-09-12T06:12:58;11.23;;;8.90;;
4634;SDS011;2330;48.158;11.816;2023-09-12T06:15:24;10.80;;;8.40;;
4634;SDS011;2330;48.158;11.816;2023-09-12T06:17:51;9.80;;;8.90;;
4634;SDS011;2330;48.158;11.816;2023-09-12T06:20:18;9.90;;;9.00;;
4634;SDS011;2330;48.158;11.816;2023-09-12T06:22:45;9.17;;;8.33;;
4634;SDS011;2330;48.158;11.816;2023-09-12T06:25:12;10.50;;;8.63;;
4634;SDS011;2330;48.158;11.816;2023-09-12T06:27:38;10.33;;;9.43;;
4634;SDS011;2330;48.158;11.816;2023-09-12T06:30:05;10.43;;;8.03;;
4634;SDS011;2330;48.158;11.816;2023-09-12T06:32:33;9.00;;;8.10;;
4634;SDS011;2330;48.158;11.816;2023-09-12T06:35:00;12.23;;;8.60;;
4634;SDS011;2330;48.158;11.816;2023-09-12T06:37:27;9.10;;;8.27;;
4634;SDS011;2330;48.158;11.816;2023-09-12T06:39:53;9.90;;;8.10;;
4634;SDS011;2330;48.158;11.816;2023-09-12T06:42:20;7.33;;;6.80;;
4634;SDS011;2330;48.158;11.816;2023-09-12T06:44:47;8.87;;;6.83;;
4634;SDS011;2330;48.158;11.816;2023-09-12T06:47:14;7.30;;;6.60;;
4634;SDS011;2330;48.158;11.816;2023-09-12T06:49:40;9.00;;;8.20;;
4634;SDS011;2330;48.158;11.816;2023-09-12T06:52:07;9.03;;;8.10;;
4634;SDS011;2330;48.158;11.816;2023-09-12T06:54:36;10.50;;;7.77;;
4634;SDS011;2330;48.158;11.816;2023-09-12T06:57:03;8.13;;;7.37;;
4634;SDS011;2330;48.158;11.816;2023-09-12T06:59:30;9.47;;;8.47;;
4634;SDS011;2330;48.158;11.816;2023-09-12T07:01:56;10.83;;;8.90;;
4634;SDS011;2330;48.158;11.816;2023-09-12T07:04:24;10.13;;;8.63;;
4634;SDS011;2330;48.158;11.816;2023-09-12T07:06:51;9.07;;;8.27;;
4634;SDS011;2330;48.158;11.816;2023-09-12T07:09:18;10.57;;;8.13;;
4634;SDS011;2330;48.158;11.816;2023-09-12T07:11:45;8.93;;;8.00;;
4634;SDS011;2330;48.158;11.816;2023-09-12T07:14:13;12.10;;;8.00;;
4634;SDS011;2330;48.158;11.816;2023-09-12T07:16:40;10.97;;;7.90;;
4634;SDS011;2330;48.158;11.816;2023-09-12T07:19:07;7.50;;;6.80;;
4634;SDS011;2330;48.158;11.816;2023-09-12T07:21:34;10.47;;;8.17;;
4634;SDS011;2330;48.158;11.816;2023-09-12T07:24:00;9.70;;;7.80;;
4634;SDS011;2330;48.158;11.816;2023-09-12T07:26:27;7.93;;;7.17;;
4634;SDS011;2330;48.158;11.816;2023-09-12T07:28:54;8.33;;;7.63;;
4634;SDS011;2330;48.158;11.816;2023-09-12T07:31:21;9.33;;;8.43;;
4634;SDS011;2330;48.158;11.816;2023-09-12T07:33:48;8.60;;;6.87;;
4634;SDS011;2330;48.158;11.816;2023-09-12T07:36:15;12.43;;;8.70;;
4634;SDS011;2330;48.158;11.816;2023-09-12T07:38:41;20.77;;;9.00;;
4634;SDS011;2330;48.158;11.816;2023-09-12T07:41:09;8.73;;;7.93;;
4634;SDS011;2330;48.158;11.816;2023-09-12T07:43:36;9.30;;;8.30;;
4634;SDS011;2330;48.158;11.816;2023-09-12T07:46:03;13.70;;;8.30;;
4634;SDS011;2330;48.158;11.816;2023-09-12T07:48:30;11.70;;;7.60;;
4634;SDS011;2330;48.158;11.816;2023-09-12T07:50:57;15.77;;;8.10;;
4634;SDS011;2330;48.158;11.816;2023-09-12T07:53:23;8.17;;;7.47;;
4634;SDS011;2330;48.158;11.816;2023-09-12T07:55:50;8.57;;;7.30;;
4634;SDS011;2330;48.158;11.816;2023-09-12T07:58:17;7.60;;;7.00;;
4634;SDS011;2330;48.158;11.816;2023-09-12T08:00:50;9.00;;;8.00;;
4634;SDS011;2330;48.158;11.816;2023-09-12T08:03:17;10.33;;;7.60;;
4634;SDS011;2330;48.158;11.816;2023-09-12T08:05:53;7.83;;;7.13;;
4634;SDS011;2330;48.158;11.816;2023-09-12T08:08:21;8.93;;;8.03;;
4634;SDS011;2330;48.158;11.816;2023-09-12T08:10:48;8.37;;;7.57;;
4634;SDS011;2330;48.158;11.816;2023-09-12T08:13:15;9.37;;;6.60;;
4634;SDS011;2330;48.158;11.816;2023-09-12T08:15:41;10.07;;;7.67;;
4634;SDS011;2330;48.158;11.816;2023-09-12T08:18:08;8.83;;;8.03;;
4634;SDS011;2330;48.158;11.816;2023-09-12T08:20:36;8.23;;;7.10;;
4634;SDS011;2330;48.158;11.816;2023-09-12T08:23:03;8.13;;;7.33;;
4634;SDS011;2330;48.158;11.816;2023-09-12T08:25:30;13.97;;;8.00;;
4634;SDS011;2330;48.158;11.816;2023-09-12T08:27:57;9.50;;;7.63;;
4634;SDS011;2330;48.158;11.816;2023-09-12T08:30:24;9.67;;;8.23;;
4634;SDS011;2330;48.158;11.816;2023-09-12T08:32:51;8.87;;;6.83;;
4634;SDS011;2330;48.158;11.816;2023-09-12T08:35:18;8.17;;;6.93;;
4634;SDS011;2330;48.158;11.816;2023-09-12T08:37:45;11.00;;;7.43;;
4634;SDS011;2330;48.158;11.816;2023-09-12T08:40:12;7.67;;;6.87;;
4634;SDS011;2330;48.158;11.816;2023-09-12T08:42:40;7.80;;;7.00;;
4634;SDS011;2330;48.158;11.816;2023-09-12T08:45:14;8.10;;;6.73;;
4634;SDS011;2330;48.158;11.816;2023-09-12T08:47:43;7.70;;;7.00;;
4634;SDS011;2330;48.158;11.816;2023-09-12T08:50:12;8.70;;;7.70;;
4634;SDS011;2330;48.158;11.816;2023-09-12T08:52:41;9.93;;;6.53;;
4634;SDS011;2330;48.158;11.816;2023-09-12T08:55:25;7.83;;;6.80;;
4634;SDS011;2330;48.158;11.816;2023-09-12T08:57:52;7.40;;;6.80;;
4634;SDS011;2330;48.158;11.816;2023-09-12T09:00:20;14.97;;;6.40;;
4634;SDS011;2330;48.158;11.816;2023-09-12T09:02:49;8.57;;;6.20;;
4634;SDS011;2330;48.158;11.816;2023-09-12T09:05:16;8.53;;;7.73;;
4634;SDS011;2330;48.158;11.816;2023-09-12T09:07:48;8.60;;;7.70;;
4634;SDS011;2330;48.158;11.816;2023-09-12T09:10:19;7.60;;;6.80;;
4634;SDS011;2330;48.158;11.816;2023-09-12T09:13:07;11.07;;;7.37;;
4634;SDS011;2330;48.158;11.816;2023-09-12T09:15:36;9.80;;;5.83;;
4634;SDS011;2330;48.158;11.816;2023-09-12T09:18:08;10.17;;;6.97;;
4634;SDS011;2330;48.158;11.816;2023-09-12T09:20:39;7.67;;;6.97;;
4634;SDS011;2330;48.158;11.816;2023-09-12T09:23:08;9.33;;;8.07;;
4634;SDS011;2330;48.158;11.816;2023-09-12T09:25:38;7.60;;;7.00;;
4634;SDS011;2330;48.158;11.816;2023-09-12T09:28:17;8.10;;;7.30;;
4634;SDS011;2330;48.158;11.816;2023-09-12T09:30:45;7.87;;;7.10;;
4634;SDS011;2330;48.158;11.816;2023-09-12T09:33:21;8.80;;;5.77;;
4634;SDS011;2330;48.158;11.816;2023-09-12T09:35:49;12.20;;;7.60;;
4634;SDS011;2330;48.158;11.816;2023-09-12T09:38:18;6.77;;;6.13;;
4634;SDS011;2330;48.158;11.816;2023-09-12T09:40:46;7.83;;;6.70;;
4634;SDS011;2330;48.158;11.816;2023-09-12T09:43:19;7.30;;;6.60;;
4634;SDS011;2330;48.158;11.816;2023-09-12T09:45:47;6.83;;;6.33;;
4634;SDS011;2330;48.158;11.816;2023-09-12T09:48:18;7.10;;;6.50;;
4634;SDS011;2330;48.158;11.816;2023-09-12T09:50:46;7.93;;;6.30;;
4634;SDS011;2330;48.158;11.816;2023-09-12T09:53:13;8.10;;;6.73;;
4634;SDS011;2330;48.158;11.816;2023-09-12T09:55:40;7.80;;;6.87;;
4634;SDS011;2330;48.158;11.816;2023-09-12T09:58:08;8.00;;;6.83;;
4634;SDS011;2330;48.158;11.816;2023-09-12T10:00:43;7.43;;;6.83;;
4634;SDS011;2330;48.158;11.816;2023-09-12T10:03:11;10.70;;;8.10;;
4634;SDS011;2330;48.158;11.816;2023-09-12T10:05:41;7.73;;;7.03;;
4634;SDS011;2330;48.158;11.816;2023-09-12T10:08:09;9.87;;;7.40;;
4634;SDS011;2330;48.158;11.816;2023-09-12T10:10:38;7.50;;;6.80;;
4634;SDS011;2330;48.158;11.816;2023-09-12T10:13:07;11.67;;;6.30;;
4634;SDS011;2330;48.158;11.816;2023-09-12T10:15:35;7.80;;;7.10;;
4634;SDS011;2330;48.158;11.816;2023-09-12T10:18:06;9.23;;;6.17;;
4634;SDS011;2330;48.158;11.816;2023-09-12T10:20:41;13.23;;;6.83;;
4634;SDS011;2330;48.158;11.816;2023-09-12T10:23:19;6.80;;;6.20;;
4634;SDS011;2330;48.158;11.816;2023-09-12T10:25:56;9.53;;;7.17;;
4634;SDS011;2330;48.158;11.816;2023-09-12T10:28:25;8.43;;;6.57;;
4634;SDS011;2330;48.158;11.816;2023-09-12T10:30:54;7.40;;;6.80;;
4634;SDS011;2330;48.158;11.816;2023-09-12T10:33:26;6.60;;;6.00;;
4634;SDS011;2330;48.158;11.816;2023-09-12T10:35:58;7.13;;;6.43;;
4634;SDS011;2330;48.158;11.816;2023-09-12T10:38:26;7.13;;;6.63;;
4634;SDS011;2330;48.158;11.816;2023-09-12T10:40:56;6.90;;;6.40;;
4634;SDS011;2330;48.158;11.816;2023-09-12T10:43:28;7.97;;;7.17;;
4634;SDS011;2330;48.158;11.816;2023-09-12T10:45:55;11.67;;;6.30;;
4634;SDS011;2330;48.158;11.816;2023-09-12T10:48:25;6.17;;;5.67;;
4634;SDS011;2330;48.158;11.816;2023-09-12T10:50:52;9.43;;;5.97;;
4634;SDS011;2330;48.158;11.816;2023-09-12T10:53:22;6.50;;;6.00;;
4634;SDS011;2330;48.158;11.816;2023-09-12T10:56:00;5.17;;;4.67;;
4634;SDS011;2330;48.158;11.816;2023-09-12T10:59:07;8.03;;;7.23;;
4634;SDS011;2330;48.158;11.816;2023-09-12T11:01:36;6.67;;;6.10;;
4634;SDS011;2330;48.158;11.816;2023-09-12T11:06:47;8.83;;;6.00;;
4634;SDS011;2330;48.158;11.816;2023-09-12T11:09:22;11.13;;;6.93;;
4634;SDS011;2330;48.158;11.816;2023-09-12T11:11:58;6.80;;;5.50;;
4634;SDS011;2330;48.158;11.816;2023-09-12T11:14:29;6.30;;;5.70;;
4634;SDS011;2330;48.158;11.816;2023-09-12T11:19:47;7.00;;;6.23;;
4634;SDS011;2330;48.158;11.816;2023-09-12T11:22:22;6.43;;;5.73;;
4634;SDS011;2330;48.158;11.816;2023-09-12T11:24:54;5.90;;;5.40;;
4634;SDS011;2330;48.158;11.816;2023-09-12T11:27:25;6.40;;;5.70;;
4634;SDS011;2330;48.158;11.816;2023-09-12T11:30:21;6.70;;;5.70;;
4634;SDS011;2330;48.158;11.816;2023-09-12T11:32:49;6.40;;;5.30;;
4634;SDS011;2330;48.158;11.816;2023-09-12T11:35:24;6.40;;;5.63;;
4634;SDS011;2330;48.158;11.816;2023-09-12T11:37:54;6.20;;;5.50;;
4634;SDS011;2330;48.158;11.816;2023-09-12T11:42:58;8.73;;;5.87;;
4634;SDS011;2330;48.158;11.816;2023-09-12T11:45:26;6.20;;;5.60;;
4634;SDS011;2330;48.158;11.816;2023-09-12T11:47:54;5.97;;;5.37;;
4634;SDS011;2330;48.158;11.816;2023-09-12T11:53:02;6.60;;;6.10;;
4634;SDS011;2330;48.158;11.816;2023-09-12T11:55:31;6.33;;;5.73;;
4634;SDS011;2330;48.158;11.816;2023-09-12T11:57:59;6.90;;;5.97;;
4634;SDS011;2330;48.158;11.816;2023-09-12T12:00:27;6.00;;;5.50;;
4634;SDS011;2330;48.158;11.816;2023-09-12T12:02:54;6.60;;;6.10;;
4634;SDS011;2330;48.158;11.816;2023-09-12T12:05:21;7.00;;;6.40;;
4634;SDS011;2330;48.158;11.816;2023-09-12T12:07:49;6.97;;;6.30;;
4634;SDS011;2330;48.158;11.816;2023-09-12T12:10:16;5.90;;;5.33;;
4634;SDS011;2330;48.158;11.816;2023-09-12T12:12:44;7.20;;;6.50;;
4634;SDS011;2330;48.158;11.816;2023-09-12T12:15:14;8.90;;;6.23;;
4634;SDS011;2330;48.158;11.816;2023-09-12T12:17:41;6.10;;;5.50;;
4634;SDS011;2330;48.158;11.816;2023-09-12T12:20:09;6.83;;;5.60;;
4634;SDS011;2330;48.158;11.816;2023-09-12T12:22:37;6.10;;;5.60;;
4634;SDS011;2330;48.158;11.816;2023-09-12T12:25:08;13.63;;;5.80;;
4634;SDS011;2330;48.158;11.816;2023-09-12T12:27:37;6.30;;;5.70;;
4634;SDS011;2330;48.158;11.816;2023-09-12T12:30:06;6.57;;;6.07;;
4634;SDS011;2330;48.158;11.816;2023-09-12T12:32:41;5.80;;;5.13;;
4634;SDS011;2330;48.158;11.816;2023-09-12T12:35:09;7.27;;;5.47;;
4634;SDS011;2330;48.158;11.816;2023-09-12T12:37:55;6.00;;;5.47;;
4634;SDS011;2330;48.158;11.816;2023-09-12T12:40:36;7.83;;;5.60;;
4634;SDS011;2330;48.158;11.816;2023-09-12T12:43:20;6.50;;;5.90;;
4634;SDS011;2330;48.158;11.816;2023-09-12T12:45:53;6.63;;;6.03;;
4634;SDS011;2330;48.158;11.816;2023-09-12T12:48:31;5.73;;;5.23;;
4634;SDS011;2330;48.158;11.816;2023-09-12T12:50:59;6.10;;;5.60;;
4634;SDS011;2330;48.158;11.816;2023-09-12T12:53:39;5.53;;;5.13;;
4634;SDS011;2330;48.158;11.816;2023-09-12T12:56:22;7.20;;;6.60;;
4634;SDS011;2330;48.158;11.816;2023-09-12T12:58:58;8.30;;;5.73;;
4634;SDS011;2330;48.158;11.816;2023-09-12T13:01:30;8.00;;;5.07;;
4634;SDS011;2330;48.158;11.816;2023-09-12T13:03:57;7.60;;;5.47;;
4634;SDS011;2330;48.158;11.816;2023-09-12T13:06:24;6.03;;;5.43;;
4634;SDS011;2330;48.158;11.816;2023-09-12T13:08:53;6.43;;;5.57;;
4634;SDS011;2330;48.158;11.816;2023-09-12T13:11:20;5.70;;;5.30;;
4634;SDS011;2330;48.158;11.816;2023-09-12T13:13:47;5.87;;;5.37;;
4634;SDS011;2330;48.158;11.816;2023-09-12T13:16:15;7.77;;;6.00;;
4634;SDS011;2330;48.158;11.816;2023-09-12T13:18:43;6.23;;;5.73;;
4634;SDS011;2330;48.158;11.816;2023-09-12T13:21:10;8.90;;;5.47;;
4634;SDS011;2330;48.158;11.816;2023-09-12T13:23:37;6.50;;;6.00;;
4634;SDS011;2330;48.158;11.816;2023-09-12T13:26:05;7.47;;;5.23;;
4634;SDS011;2330;48.158;11.816;2023-09-12T13:28:33;5.53;;;5.10;;
4634;SDS011;2330;48.158;11.816;2023-09-12T13:31:00;6.23;;;5.63;;
4634;SDS011;2330;48.158;11.816;2023-09-12T13:33:27;8.70;;;5.17;;
4634;SDS011;2330;48.158;11.816;2023-09-12T13:35:54;6.00;;;5.47;;
4634;SDS011;2330;48.158;11.816;2023-09-12T13:38:21;5.53;;;5.03;;
4634;SDS011;2330;48.158;11.816;2023-09-12T13:40:49;8.23;;;6.17;;
4634;SDS011;2330;48.158;11.816;2023-09-12T13:43:16;8.00;;;5.37;;
4634;SDS011;2330;48.158;11.816;2023-09-12T13:45:42;6.40;;;5.80;;
4634;SDS011;2330;48.158;11.816;2023-09-12T13:48:09;9.13;;;5.10;;
4634;SDS011;2330;48.158;11.816;2023-09-12T13:50:38;6.33;;;5.80;;
4634;SDS011;2330;48.158;11.816;2023-09-12T13:53:05;6.93;;;5.67;;
4634;SDS011;2330;48.158;11.816;2023-09-12T13:55:33;6.43;;;5.93;;
4634;SDS011;2330;48.158;11.816;2023-09-12T13:58:21;5.87;;;5.20;;
4634;SDS011;2330;48.158;11.816;2023-09-12T14:00:48;8.87;;;6.13;;
4634;SDS011;2330;48.158;11.816;2023-09-12T14:03:15;9.60;;;5.17;;
4634;SDS011;2330;48.158;11.816;2023-09-12T14:05:43;6.03;;;5.00;;
4634;SDS011;2330;48.158;11.816;2023-09-12T14:08:10;6.63;;;5.57;;
4634;SDS011;2330;48.158;11.816;2023-09-12T14:10:38;9.67;;;5.70;;
4634;SDS011;2330;48.158;11.816;2023-09-12T14:13:07;5.53;;;5.13;;
4634;SDS011;2330;48.158;11.816;2023-09-12T14:15:37;5.40;;;5.00;;
4634;SDS011;2330;48.158;11.816;2023-09-12T14:18:04;5.57;;;5.10;;
4634;SDS011;2330;48.158;11.816;2023-09-12T14:20:31;5.20;;;4.80;;
4634;SDS011;2330;48.158;11.816;2023-09-12T14:22:58;5.50;;;5.00;;
4634;SDS011;2330;48.158;11.816;2023-09-12T14:25:25;6.60;;;4.83;;
4634;SDS011;2330;48.158;11.816;2023-09-12T14:27:53;5.30;;;4.90;;
4634;SDS011;2330;48.158;11.816;2023-09-12T14:30:20;5.93;;;5.43;;
4634;SDS011;2330;48.158;11.816;2023-09-12T14:32:49;7.83;;;5.70;;
4634;SDS011;2330;48.158;11.816;2023-09-12T14:35:15;5.30;;;4.80;;
4634;SDS011;2330;48.158;11.816;2023-09-12T14:37:42;5.90;;;5.30;;
4634;SDS011;2330;48.158;11.816;2023-09-12T14:40:09;5.30;;;4.90;;
4634;SDS011;2330;48.158;11.816;2023-09-12T14:42:37;6.47;;;5.43;;
4634;SDS011;2330;48.158;11.816;2023-09-12T14:45:04;8.00;;;5.80;;
4634;SDS011;2330;48.158;11.816;2023-09-12T14:47:32;7.10;;;6.33;;
4634;SDS011;2330;48.158;11.816;2023-09-12T14:49:59;9.03;;;5.67;;
4634;SDS011;2330;48.158;11.816;2023-09-12T14:52:26;5.93;;;5.27;;
4634;SDS011;2330;48.158;11.816;2023-09-12T14:54:56;6.23;;;5.73;;
4634;SDS011;2330;48.158;11.816;2023-09-12T14:57:25;8.23;;;5.70;;
4634;SDS011;2330;48.158;11.816;2023-09-12T14:59:52;8.33;;;5.40;;
4634;SDS011;2330;48.158;11.816;2023-09-12T15:02:21;4.93;;;4.53;;
4634;SDS011;2330;48.158;11.816;2023-09-12T15:04:48;6.07;;;5.57;;
4634;SDS011;2330;48.158;11.816;2023-09-12T15:07:15;7.40;;;5.43;;
4634;SDS011;2330;48.158;11.816;2023-09-12T15:09:42;7.63;;;5.77;;
4634;SDS011;2330;48.158;11.816;2023-09-12T15:12:08;5.37;;;4.90;;
4634;SDS011;2330;48.158;11.816;2023-09-12T15:14:35;7.00;;;5.10;;